sensor_id;sensor_type;location;lat;lon;timestamp;temperature;humidity
37844;DHT22;23930;57.632;18.292;2022-07-18T00:02:13;17.60;99.90
37844;DHT22;23930;57.632;18.292;2022-07-18T00:04:41;17.60;99.90
37844;DHT22;23930;57.632;18.292;2022-07-18T00:07:08;17.60;99.90
37844;DHT22;23930;57.632;18.292;2022-07-18T00:09:38;17.60;99.90
37844;DHT22;23930;57.632;18.292;2022-07-18T00:12:07;17.60;99.90
37844;DHT22;23930;57.632;18.292;2022-07-18T00:14:35;17.60;99.90
37844;DHT22;23930;57.632;18.292;2022-07-18T00:17:03;17.60;99.90
37844;DHT22;23930;57.632;18.292;2022-07-18T00:19:30;17.60;99.90
37844;DHT22;23930;57.632;18.292;2022-07-18T00:21:57;17.60;99.90
37844;DHT22;23930;57.632;18.292;2022-07-18T00:24:24;17.60;99.90
37844;DHT22;23930;57.632;18.292;2022-07-18T00:26:51;17.60;99.90
37844;DHT22;23930;57.632;18.292;2022-07-18T00:29:18;17.60;99.90
37844;DHT22;23930;57.632;18.292;2022-07-18T00:31:45;17.60;99.90
37844;DHT22;23930;57.632;18.292;2022-07-18T00:34:12;17.60;99.90
37844;DHT22;23930;57.632;18.292;2022-07-18T00:36:39;17.60;99.90
37844;DHT22;23930;57.632;18.292;2022-07-18T00:39:06;17.60;99.90
37844;DHT22;23930;57.632;18.292;2022-07-18T00:41:33;17.50;99.90
37844;DHT22;23930;57.632;18.292;2022-07-18T00:44:00;17.50;99.90
37844;DHT22;23930;57.632;18.292;2022-07-18T00:46:28;17.50;99.90
37844;DHT22;23930;57.632;18.292;2022-07-18T00:48:56;17.50;99.90
37844;DHT22;23930;57.632;18.292;2022-07-18T00:51:23;17.50;99.90
37844;DHT22;23930;57.632;18.292;2022-07-18T00:53:50;17.50;99.90
37844;DHT22;23930;57.632;18.292;2022-07-18T00:56:18;17.50;99.90
37844;DHT22;23930;57.632;18.292;2022-07-18T00:58:46;17.50;99.90
37844;DHT22;23930;57.632;18.292;2022-07-18T01:01:13;17.50;99.90
37844;DHT22;23930;57.632;18.292;2022-07-18T01:03:59;17.50;99.90
37844;DHT22;23930;57.632;18.292;2022-07-18T01:06:26;17.60;99.90
37844;DHT22;23930;57.632;18.292;2022-07-18T01:08:53;17.60;99.90
37844;DHT22;23930;57.632;18.292;2022-07-18T01:11:20;17.60;99.90
37844;DHT22;23930;57.632;18.292;2022-07-18T01:13:49;17.60;99.90
37844;DHT22;23930;57.632;18.292;2022-07-18T01:16:17;17.60;99.90
37844;DHT22;23930;57.632;18.292;2022-07-18T01:18:46;17.60;99.90
37844;DHT22;23930;57.632;18.292;2022-07-18T01:21:14;17.60;99.90
37844;DHT22;23930;57.632;18.292;2022-07-18T01:23:42;17.60;99.90
37844;DHT22;23930;57.632;18.292;2022-07-18T01:26:09;17.60;99.90
37844;DHT22;23930;57.632;18.292;2022-07-18T01:28:37;17.60;99.90
37844;DHT22;23930;57.632;18.292;2022-07-18T01:31:04;17.60;99.90
37844;DHT22;23930;57.632;18.292;2022-07-18T01:33:32;17.60;99.90
37844;DHT22;23930;57.632;18.292;2022-07-18T01:36:00;17.60;99.90
37844;DHT22;23930;57.632;18.292;2022-07-18T01:38:28;17.60;99.90
37844;DHT22;23930;57.632;18.292;2022-07-18T01:40:56;17.60;99.90
37844;DHT22;23930;57.632;18.292;2022-07-18T01:43:24;17.60;99.90
37844;DHT22;23930;57.632;18.292;2022-07-18T01:45:51;17.50;99.90
37844;DHT22;23930;57.632;18.292;2022-07-18T01:48:19;17.50;99.90
37844;DHT22;23930;57.632;18.292;2022-07-18T01:50:46;17.50;99.90
37844;DHT22;23930;57.632;18.292;2022-07-18T01:53:13;17.50;99.90
37844;DHT22;23930;57.632;18.292;2022-07-18T01:55:40;17.40;99.90
37844;DHT22;23930;57.632;18.292;2022-07-18T01:58:07;17.40;99.90
37844;DHT22;23930;57.632;18.292;2022-07-18T02:00:34;17.40;99.90
37844;DHT22;23930;57.632;18.292;2022-07-18T02:03:01;17.40;99.90
37844;DHT22;23930;57.632;18.292;2022-07-18T02:05:28;17.40;99.90
37844;DHT22;23930;57.632;18.292;2022-07-18T02:07:55;17.30;99.90
37844;DHT22;23930;57.632;18.292;2022-07-18T02:10:22;17.30;99.90
37844;DHT22;23930;57.632;18.292;2022-07-18T02:12:49;17.30;99.90
37844;DHT22;23930;57.632;18.292;2022-07-18T02:15:16;17.30;99.90
37844;DHT22;23930;57.632;18.292;2022-07-18T02:17:43;17.30;99.90
37844;DHT22;23930;57.632;18.292;2022-07-18T02:20:12;17.30;99.90
37844;DHT22;23930;57.632;18.292;2022-07-18T02:22:39;17.20;99.90
37844;DHT22;23930;57.632;18.292;2022-07-18T02:25:06;17.20;99.90
37844;DHT22;23930;57.632;18.292;2022-07-18T02:27:34;17.20;99.90
37844;DHT22;23930;57.632;18.292;2022-07-18T02:30:01;17.20;99.90
37844;DHT22;23930;57.632;18.292;2022-07-18T02:32:28;17.20;99.90
37844;DHT22;23930;57.632;18.292;2022-07-18T02:34:54;17.20;99.90
37844;DHT22;23930;57.632;18.292;2022-07-18T02:37:21;17.20;99.90
37844;DHT22;23930;57.632;18.292;2022-07-18T02:39:48;17.20;99.90
37844;DHT22;23930;57.632;18.292;2022-07-18T02:42:15;17.20;99.90
37844;DHT22;23930;57.632;18.292;2022-07-18T02:44:42;17.20;99.90
37844;DHT22;23930;57.632;18.292;2022-07-18T02:47:09;17.10;99.90
37844;DHT22;23930;57.632;18.292;2022-07-18T02:49:36;17.10;99.90
37844;DHT22;23930;57.632;18.292;2022-07-18T02:52:08;17.10;99.90
37844;DHT22;23930;57.632;18.292;2022-07-18T02:54:37;17.10;99.90
37844;DHT22;23930;57.632;18.292;2022-07-18T02:57:04;17.10;99.90
37844;DHT22;23930;57.632;18.292;2022-07-18T02:59:33;17.10;99.90
37844;DHT22;23930;57.632;18.292;2022-07-18T03:02:00;17.10;99.90
37844;DHT22;23930;57.632;18.292;2022-07-18T03:04:27;17.10;99.90
37844;DHT22;23930;57.632;18.292;2022-07-18T03:06:55;17.20;99.90
37844;DHT22;23930;57.632;18.292;2022-07-18T03:09:22;17.10;99.90
37844;DHT22;23930;57.632;18.292;2022-07-18T03:11:49;17.20;99.90
37844;DHT22;23930;57.632;18.292;2022-07-18T03:14:16;17.20;99.90
37844;DHT22;23930;57.632;18.292;2022-07-18T03:16:42;17.20;99.90
37844;DHT22;23930;57.632;18.292;2022-07-18T03:19:09;17.20;99.90
37844;DHT22;23930;57.632;18.292;2022-07-18T03:21:36;17.20;99.90
37844;DHT22;23930;57.632;18.292;2022-07-18T03:24:04;17.20;99.90
37844;DHT22;23930;57.632;18.292;2022-07-18T03:26:31;17.20;99.90
37844;DHT22;23930;57.632;18.292;2022-07-18T03:28:58;17.20;99.90
37844;DHT22;23930;57.632;18.292;2022-07-18T03:31:25;17.20;99.90
37844;DHT22;23930;57.632;18.292;2022-07-18T03:33:52;17.20;99.90
37844;DHT22;23930;57.632;18.292;2022-07-18T03:36:19;17.20;99.90
37844;DHT22;23930;57.632;18.292;2022-07-18T03:38:46;17.20;99.90
37844;DHT22;23930;57.632;18.292;2022-07-18T03:41:13;17.20;99.90
37844;DHT22;23930;57.632;18.292;2022-07-18T03:43:40;17.20;99.90
37844;DHT22;23930;57.632;18.292;2022-07-18T03:46:08;17.20;99.90
37844;DHT22;23930;57.632;18.292;2022-07-18T03:48:35;17.30;99.90
37844;DHT22;23930;57.632;18.292;2022-07-18T03:51:03;17.30;99.90
37844;DHT22;23930;57.632;18.292;2022-07-18T03:53:30;17.30;99.90
37844;DHT22;23930;57.632;18.292;2022-07-18T03:55:58;17.40;99.90
37844;DHT22;23930;57.632;18.292;2022-07-18T03:58:25;17.40;99.90
37844;DHT22;23930;57.632;18.292;2022-07-18T04:00:52;17.40;99.90
37844;DHT22;23930;57.632;18.292;2022-07-18T04:03:21;17.40;99.90
37844;DHT22;23930;57.632;18.292;2022-07-18T04:05:48;17.40;99.90
37844;DHT22;23930;57.632;18.292;2022-07-18T04:08:15;17.40;99.90
37844;DHT22;23930;57.632;18.292;2022-07-18T04:10:42;17.30;99.90
37844;DHT22;23930;57.632;18.292;2022-07-18T04:13:10;17.40;99.90
37844;DHT22;23930;57.632;18.292;2022-07-18T04:15:37;17.40;99.90
37844;DHT22;23930;57.632;18.292;2022-07-18T04:18:06;17.40;99.90
37844;DHT22;23930;57.632;18.292;2022-07-18T04:20:34;17.40;99.90
37844;DHT22;23930;57.632;18.292;2022-07-18T04:23:04;17.40;99.90
37844;DHT22;23930;57.632;18.292;2022-07-18T04:25:39;17.50;99.90
37844;DHT22;23930;57.632;18.292;2022-07-18T04:28:08;17.50;99.90
37844;DHT22;23930;57.632;18.292;2022-07-18T04:30:36;17.50;99.90
37844;DHT22;23930;57.632;18.292;2022-07-18T04:33:05;17.50;99.90
37844;DHT22;23930;57.632;18.292;2022-07-18T04:35:33;17.50;99.90
37844;DHT22;23930;57.632;18.292;2022-07-18T04:38:03;17.50;99.90
37844;DHT22;23930;57.632;18.292;2022-07-18T04:40:30;17.50;99.90
37844;DHT22;23930;57.632;18.292;2022-07-18T04:42:57;17.50;99.90
37844;DHT22;23930;57.632;18.292;2022-07-18T04:45:24;17.50;99.90
37844;DHT22;23930;57.632;18.292;2022-07-18T04:47:53;17.50;99.90
37844;DHT22;23930;57.632;18.292;2022-07-18T04:50:20;17.50;99.90
37844;DHT22;23930;57.632;18.292;2022-07-18T04:52:48;17.50;99.90
37844;DHT22;23930;57.632;18.292;2022-07-18T04:55:18;17.50;99.90
37844;DHT22;23930;57.632;18.292;2022-07-18T04:57:45;17.50;99.90
37844;DHT22;23930;57.632;18.292;2022-07-18T05:00:14;17.50;99.90
37844;DHT22;23930;57.632;18.292;2022-07-18T05:02:45;17.50;99.90
37844;DHT22;23930;57.632;18.292;2022-07-18T05:05:13;17.50;99.90
37844;DHT22;23930;57.632;18.292;2022-07-18T05:07:42;17.60;99.90
37844;DHT22;23930;57.632;18.292;2022-07-18T05:10:11;17.50;99.90
37844;DHT22;23930;57.632;18.292;2022-07-18T05:12:39;17.60;99.90
37844;DHT22;23930;57.632;18.292;2022-07-18T05:15:08;17.60;99.90
37844;DHT22;23930;57.632;18.292;2022-07-18T05:17:37;17.60;99.90
37844;DHT22;23930;57.632;18.292;2022-07-18T05:20:05;17.50;99.90
37844;DHT22;23930;57.632;18.292;2022-07-18T05:22:34;17.60;99.90
37844;DHT22;23930;57.632;18.292;2022-07-18T05:25:02;17.70;99.90
37844;DHT22;23930;57.632;18.292;2022-07-18T05:27:29;17.70;99.90
37844;DHT22;23930;57.632;18.292;2022-07-18T05:29:56;17.80;99.90
37844;DHT22;23930;57.632;18.292;2022-07-18T05:32:23;17.80;99.90
37844;DHT22;23930;57.632;18.292;2022-07-18T05:34:50;17.90;99.90
37844;DHT22;23930;57.632;18.292;2022-07-18T05:37:17;17.80;99.90
37844;DHT22;23930;57.632;18.292;2022-07-18T05:39:44;17.80;99.90
37844;DHT22;23930;57.632;18.292;2022-07-18T05:42:11;17.80;99.90
37844;DHT22;23930;57.632;18.292;2022-07-18T05:44:37;17.80;99.90
37844;DHT22;23930;57.632;18.292;2022-07-18T05:47:04;17.70;99.90
37844;DHT22;23930;57.632;18.292;2022-07-18T05:49:31;17.70;99.90
37844;DHT22;23930;57.632;18.292;2022-07-18T05:51:58;17.80;99.90
37844;DHT22;23930;57.632;18.292;2022-07-18T05:54:25;17.80;99.90
37844;DHT22;23930;57.632;18.292;2022-07-18T05:56:53;17.80;99.90
37844;DHT22;23930;57.632;18.292;2022-07-18T05:59:20;17.80;99.90
37844;DHT22;23930;57.632;18.292;2022-07-18T06:01:48;17.90;99.90
37844;DHT22;23930;57.632;18.292;2022-07-18T06:04:15;18.00;99.90
37844;DHT22;23930;57.632;18.292;2022-07-18T06:06:42;18.00;99.90
37844;DHT22;23930;57.632;18.292;2022-07-18T06:09:10;18.00;99.90
37844;DHT22;23930;57.632;18.292;2022-07-18T06:11:37;18.00;99.90
37844;DHT22;23930;57.632;18.292;2022-07-18T06:14:04;18.00;99.90
37844;DHT22;23930;57.632;18.292;2022-07-18T06:16:31;18.00;99.90
37844;DHT22;23930;57.632;18.292;2022-07-18T06:18:58;18.00;99.90
37844;DHT22;23930;57.632;18.292;2022-07-18T06:21:26;18.10;99.90
37844;DHT22;23930;57.632;18.292;2022-07-18T06:23:53;18.20;99.90
37844;DHT22;23930;57.632;18.292;2022-07-18T06:26:20;18.20;99.90
37844;DHT22;23930;57.632;18.292;2022-07-18T06:28:47;18.30;99.90
37844;DHT22;23930;57.632;18.292;2022-07-18T06:31:15;18.40;99.90
37844;DHT22;23930;57.632;18.292;2022-07-18T06:33:43;18.50;99.90
37844;DHT22;23930;57.632;18.292;2022-07-18T06:36:10;18.50;99.90
37844;DHT22;23930;57.632;18.292;2022-07-18T06:38:40;18.50;99.90
37844;DHT22;23930;57.632;18.292;2022-07-18T06:41:07;18.50;99.90
37844;DHT22;23930;57.632;18.292;2022-07-18T06:43:37;18.60;99.90
37844;DHT22;23930;57.632;18.292;2022-07-18T06:46:05;18.50;99.90
37844;DHT22;23930;57.632;18.292;2022-07-18T06:48:33;18.50;99.90
37844;DHT22;23930;57.632;18.292;2022-07-18T06:51:02;18.30;99.90
37844;DHT22;23930;57.632;18.292;2022-07-18T06:53:31;18.20;99.90
37844;DHT22;23930;57.632;18.292;2022-07-18T06:55:59;18.00;99.90
37844;DHT22;23930;57.632;18.292;2022-07-18T06:58:26;17.90;99.90
37844;DHT22;23930;57.632;18.292;2022-07-18T07:00:52;17.90;99.90
37844;DHT22;23930;57.632;18.292;2022-07-18T07:03:19;18.00;99.90
37844;DHT22;23930;57.632;18.292;2022-07-18T07:05:46;18.20;99.90
37844;DHT22;23930;57.632;18.292;2022-07-18T07:08:13;18.30;99.90
37844;DHT22;23930;57.632;18.292;2022-07-18T07:10:40;18.40;99.90
37844;DHT22;23930;57.632;18.292;2022-07-18T07:13:07;18.30;99.90
37844;DHT22;23930;57.632;18.292;2022-07-18T07:15:41;18.20;99.90
37844;DHT22;23930;57.632;18.292;2022-07-18T07:18:09;18.20;99.90
37844;DHT22;23930;57.632;18.292;2022-07-18T07:20:37;18.20;99.90
37844;DHT22;23930;57.632;18.292;2022-07-18T07:23:04;18.30;99.90
37844;DHT22;23930;57.632;18.292;2022-07-18T07:25:35;18.30;99.90
37844;DHT22;23930;57.632;18.292;2022-07-18T07:28:03;18.30;99.90
37844;DHT22;23930;57.632;18.292;2022-07-18T07:30:31;18.20;99.90
37844;DHT22;23930;57.632;18.292;2022-07-18T07:32:59;18.30;99.90
37844;DHT22;23930;57.632;18.292;2022-07-18T07:35:26;18.20;99.90
37844;DHT22;23930;57.632;18.292;2022-07-18T07:37:58;18.10;99.90
37844;DHT22;23930;57.632;18.292;2022-07-18T07:40:28;18.10;99.90
37844;DHT22;23930;57.632;18.292;2022-07-18T07:43:10;18.10;99.90
37844;DHT22;23930;57.632;18.292;2022-07-18T07:45:38;18.20;99.90
37844;DHT22;23930;57.632;18.292;2022-07-18T07:48:06;18.30;99.90
37844;DHT22;23930;57.632;18.292;2022-07-18T07:50:34;18.40;99.90
37844;DHT22;23930;57.632;18.292;2022-07-18T07:53:01;18.50;99.90
37844;DHT22;23930;57.632;18.292;2022-07-18T07:55:28;18.50;99.90
37844;DHT22;23930;57.632;18.292;2022-07-18T07:57:55;18.60;99.90
37844;DHT22;23930;57.632;18.292;2022-07-18T08:00:22;18.60;99.90
37844;DHT22;23930;57.632;18.292;2022-07-18T08:02:58;18.60;99.90
37844;DHT22;23930;57.632;18.292;2022-07-18T08:05:28;18.60;99.90
37844;DHT22;23930;57.632;18.292;2022-07-18T08:07:57;18.70;99.90
37844;DHT22;23930;57.632;18.292;2022-07-18T08:10:25;18.70;99.90
37844;DHT22;23930;57.632;18.292;2022-07-18T08:12:53;18.50;99.90
37844;DHT22;23930;57.632;18.292;2022-07-18T08:15:19;18.50;99.90
37844;DHT22;23930;57.632;18.292;2022-07-18T08:17:46;18.60;99.90
37844;DHT22;23930;57.632;18.292;2022-07-18T08:20:14;18.60;99.90
37844;DHT22;23930;57.632;18.292;2022-07-18T08:25:28;18.70;99.90
37844;DHT22;23930;57.632;18.292;2022-07-18T08:27:56;18.70;99.90
37844;DHT22;23930;57.632;18.292;2022-07-18T08:30:23;18.80;99.90
37844;DHT22;23930;57.632;18.292;2022-07-18T08:32:50;18.90;99.90
37844;DHT22;23930;57.632;18.292;2022-07-18T08:35:17;18.90;99.90
37844;DHT22;23930;57.632;18.292;2022-07-18T08:37:45;18.90;99.90
37844;DHT22;23930;57.632;18.292;2022-07-18T08:40:13;18.90;99.90
37844;DHT22;23930;57.632;18.292;2022-07-18T08:42:40;18.90;99.90
37844;DHT22;23930;57.632;18.292;2022-07-18T08:45:27;18.90;99.90
37844;DHT22;23930;57.632;18.292;2022-07-18T08:47:54;19.00;99.90
37844;DHT22;23930;57.632;18.292;2022-07-18T08:50:22;19.10;99.90
37844;DHT22;23930;57.632;18.292;2022-07-18T08:52:49;19.20;99.90
37844;DHT22;23930;57.632;18.292;2022-07-18T08:55:20;19.20;99.90
37844;DHT22;23930;57.632;18.292;2022-07-18T08:57:53;19.30;99.90
37844;DHT22;23930;57.632;18.292;2022-07-18T09:00:21;19.40;99.90
37844;DHT22;23930;57.632;18.292;2022-07-18T09:03:02;19.40;99.90
37844;DHT22;23930;57.632;18.292;2022-07-18T09:05:30;19.30;99.90
37844;DHT22;23930;57.632;18.292;2022-07-18T09:08:13;19.40;99.90
37844;DHT22;23930;57.632;18.292;2022-07-18T09:10:49;19.40;99.90
37844;DHT22;23930;57.632;18.292;2022-07-18T09:13:18;19.40;99.90
37844;DHT22;23930;57.632;18.292;2022-07-18T09:18:33;19.20;99.90
37844;DHT22;23930;57.632;18.292;2022-07-18T09:21:23;19.30;99.90
37844;DHT22;23930;57.632;18.292;2022-07-18T09:23:52;19.40;99.90
37844;DHT22;23930;57.632;18.292;2022-07-18T09:26:39;19.50;99.90
37844;DHT22;23930;57.632;18.292;2022-07-18T09:29:07;19.50;99.90
37844;DHT22;23930;57.632;18.292;2022-07-18T09:31:53;19.50;99.90
37844;DHT22;23930;57.632;18.292;2022-07-18T09:34:34;19.60;99.90
37844;DHT22;23930;57.632;18.292;2022-07-18T09:37:02;19.60;99.90
37844;DHT22;23930;57.632;18.292;2022-07-18T09:39:29;19.50;99.90
37844;DHT22;23930;57.632;18.292;2022-07-18T09:42:16;19.60;99.90
37844;DHT22;23930;57.632;18.292;2022-07-18T09:44:57;19.80;99.90
37844;DHT22;23930;57.632;18.292;2022-07-18T09:47:25;19.80;99.90
37844;DHT22;23930;57.632;18.292;2022-07-18T09:49:52;20.00;99.90
37844;DHT22;23930;57.632;18.292;2022-07-18T09:52:19;20.20;99.90
37844;DHT22;23930;57.632;18.292;2022-07-18T09:54:46;20.20;99.90
37844;DHT22;23930;57.632;18.292;2022-07-18T09:57:26;20.20;99.90
37844;DHT22;23930;57.632;18.292;2022-07-18T09:59:54;20.10;99.90
37844;DHT22;23930;57.632;18.292;2022-07-18T10:02:21;20.10;99.90
37844;DHT22;23930;57.632;18.292;2022-07-18T10:04:49;20.00;99.90
37844;DHT22;23930;57.632;18.292;2022-07-18T10:07:16;20.00;99.90
37844;DHT22;23930;57.632;18.292;2022-07-18T10:09:45;20.20;99.90
37844;DHT22;23930;57.632;18.292;2022-07-18T10:12:14;20.40;99.90
37844;DHT22;23930;57.632;18.292;2022-07-18T10:14:43;20.40;99.90
37844;DHT22;23930;57.632;18.292;2022-07-18T10:17:11;20.40;99.90
37844;DHT22;23930;57.632;18.292;2022-07-18T10:19:38;20.60;99.90
37844;DHT22;23930;57.632;18.292;2022-07-18T10:22:07;20.70;99.90
37844;DHT22;23930;57.632;18.292;2022-07-18T10:24:38;20.90;99.90
37844;DHT22;23930;57.632;18.292;2022-07-18T10:27:16;20.90;99.90
37844;DHT22;23930;57.632;18.292;2022-07-18T10:30:11;20.80;99.90
37844;DHT22;23930;57.632;18.292;2022-07-18T10:32:39;20.60;99.90
37844;DHT22;23930;57.632;18.292;2022-07-18T10:35:07;20.60;99.90
37844;DHT22;23930;57.632;18.292;2022-07-18T10:37:35;20.60;99.90
37844;DHT22;23930;57.632;18.292;2022-07-18T10:40:25;20.70;99.90
37844;DHT22;23930;57.632;18.292;2022-07-18T10:45:59;20.80;99.90
37844;DHT22;23930;57.632;18.292;2022-07-18T10:51:01;20.90;99.90
37844;DHT22;23930;57.632;18.292;2022-07-18T10:53:54;20.90;99.90
37844;DHT22;23930;57.632;18.292;2022-07-18T10:58:55;20.70;99.90
37844;DHT22;23930;57.632;18.292;2022-07-18T11:01:24;20.70;99.90
37844;DHT22;23930;57.632;18.292;2022-07-18T11:04:26;20.70;99.90
37844;DHT22;23930;57.632;18.292;2022-07-18T11:07:15;20.60;99.90
37844;DHT22;23930;57.632;18.292;2022-07-18T11:09:48;20.70;99.90
37844;DHT22;23930;57.632;18.292;2022-07-18T11:12:30;21.00;99.90
37844;DHT22;23930;57.632;18.292;2022-07-18T11:15:05;21.00;99.90
37844;DHT22;23930;57.632;18.292;2022-07-18T11:20:41;21.20;99.90
37844;DHT22;23930;57.632;18.292;2022-07-18T11:23:20;21.30;99.90
37844;DHT22;23930;57.632;18.292;2022-07-18T11:25:49;21.50;99.90
37844;DHT22;23930;57.632;18.292;2022-07-18T11:28:24;21.60;99.90
37844;DHT22;23930;57.632;18.292;2022-07-18T11:33:29;21.80;99.90
37844;DHT22;23930;57.632;18.292;2022-07-18T11:36:09;21.70;99.90
37844;DHT22;23930;57.632;18.292;2022-07-18T11:41:32;22.00;99.90
37844;DHT22;23930;57.632;18.292;2022-07-18T11:44:02;22.10;99.90
37844;DHT22;23930;57.632;18.292;2022-07-18T11:46:29;22.00;99.90
37844;DHT22;23930;57.632;18.292;2022-07-18T11:49:02;22.10;99.90
37844;DHT22;23930;57.632;18.292;2022-07-18T11:51:39;22.30;99.90
37844;DHT22;23930;57.632;18.292;2022-07-18T11:54:07;22.50;99.90
37844;DHT22;23930;57.632;18.292;2022-07-18T11:56:48;22.20;99.90
37844;DHT22;23930;57.632;18.292;2022-07-18T11:59:16;22.20;99.90
37844;DHT22;23930;57.632;18.292;2022-07-18T12:01:43;22.30;99.90
37844;DHT22;23930;57.632;18.292;2022-07-18T12:04:21;22.50;99.90
37844;DHT22;23930;57.632;18.292;2022-07-18T12:09:44;22.40;99.90
37844;DHT22;23930;57.632;18.292;2022-07-18T12:12:12;22.30;99.90
37844;DHT22;23930;57.632;18.292;2022-07-18T12:15:01;22.30;99.90
37844;DHT22;23930;57.632;18.292;2022-07-18T12:17:30;22.40;99.90
37844;DHT22;23930;57.632;18.292;2022-07-18T12:20:20;22.20;99.90
37844;DHT22;23930;57.632;18.292;2022-07-18T12:23:27;22.40;99.90
37844;DHT22;23930;57.632;18.292;2022-07-18T12:25:54;22.40;99.90
37844;DHT22;23930;57.632;18.292;2022-07-18T12:28:25;22.60;99.90
37844;DHT22;23930;57.632;18.292;2022-07-18T12:30:52;22.50;99.90
37844;DHT22;23930;57.632;18.292;2022-07-18T12:33:26;22.60;99.90
37844;DHT22;23930;57.632;18.292;2022-07-18T12:35:58;22.80;99.90
37844;DHT22;23930;57.632;18.292;2022-07-18T12:38:25;23.00;99.90
37844;DHT22;23930;57.632;18.292;2022-07-18T12:40:57;23.10;99.90
37844;DHT22;23930;57.632;18.292;2022-07-18T12:43:31;23.30;99.90
37844;DHT22;23930;57.632;18.292;2022-07-18T12:46:00;23.40;99.90
37844;DHT22;23930;57.632;18.292;2022-07-18T12:48:29;23.50;99.90
37844;DHT22;23930;57.632;18.292;2022-07-18T12:51:07;23.30;99.90
37844;DHT22;23930;57.632;18.292;2022-07-18T12:53:37;23.10;99.90
37844;DHT22;23930;57.632;18.292;2022-07-18T12:56:04;23.10;99.90
37844;DHT22;23930;57.632;18.292;2022-07-18T12:58:31;22.90;99.90
37844;DHT22;23930;57.632;18.292;2022-07-18T13:00:58;22.70;99.90
37844;DHT22;23930;57.632;18.292;2022-07-18T13:03:34;22.50;99.90
37844;DHT22;23930;57.632;18.292;2022-07-18T13:06:01;22.40;99.90
37844;DHT22;23930;57.632;18.292;2022-07-18T13:08:27;22.20;99.90
37844;DHT22;23930;57.632;18.292;2022-07-18T13:10:55;22.10;99.90
37844;DHT22;23930;57.632;18.292;2022-07-18T13:13:22;21.90;99.90
37844;DHT22;23930;57.632;18.292;2022-07-18T13:15:49;21.90;99.90
37844;DHT22;23930;57.632;18.292;2022-07-18T13:18:16;21.90;99.90
37844;DHT22;23930;57.632;18.292;2022-07-18T13:20:43;21.80;99.90
37844;DHT22;23930;57.632;18.292;2022-07-18T13:23:10;21.80;99.90
37844;DHT22;23930;57.632;18.292;2022-07-18T13:25:38;21.70;99.90
37844;DHT22;23930;57.632;18.292;2022-07-18T13:28:05;21.60;99.90
37844;DHT22;23930;57.632;18.292;2022-07-18T13:30:32;21.50;99.90
37844;DHT22;23930;57.632;18.292;2022-07-18T13:32:59;21.50;99.90
37844;DHT22;23930;57.632;18.292;2022-07-18T13:35:26;21.40;99.90
37844;DHT22;23930;57.632;18.292;2022-07-18T13:37:53;21.30;99.90
37844;DHT22;23930;57.632;18.292;2022-07-18T13:40:20;21.30;99.90
37844;DHT22;23930;57.632;18.292;2022-07-18T13:42:53;21.30;99.90
37844;DHT22;23930;57.632;18.292;2022-07-18T13:45:20;21.20;99.90
37844;DHT22;23930;57.632;18.292;2022-07-18T13:47:47;21.20;99.90
37844;DHT22;23930;57.632;18.292;2022-07-18T13:50:14;21.30;99.90
37844;DHT22;23930;57.632;18.292;2022-07-18T13:52:41;21.30;99.90
37844;DHT22;23930;57.632;18.292;2022-07-18T13:55:10;21.30;99.90
37844;DHT22;23930;57.632;18.292;2022-07-18T13:57:37;21.40;99.90
37844;DHT22;23930;57.632;18.292;2022-07-18T14:00:06;21.50;99.90
37844;DHT22;23930;57.632;18.292;2022-07-18T14:02:34;21.70;99.90
37844;DHT22;23930;57.632;18.292;2022-07-18T14:05:02;22.00;99.90
37844;DHT22;23930;57.632;18.292;2022-07-18T14:07:44;22.10;99.90
37844;DHT22;23930;57.632;18.292;2022-07-18T14:10:13;22.20;99.90
37844;DHT22;23930;57.632;18.292;2022-07-18T14:12:41;22.20;99.90
37844;DHT22;23930;57.632;18.292;2022-07-18T14:15:08;22.20;99.90
37844;DHT22;23930;57.632;18.292;2022-07-18T14:17:36;22.00;99.90
37844;DHT22;23930;57.632;18.292;2022-07-18T14:20:03;21.90;99.90
37844;DHT22;23930;57.632;18.292;2022-07-18T14:22:31;21.90;99.90
37844;DHT22;23930;57.632;18.292;2022-07-18T14:24:58;21.80;99.90
37844;DHT22;23930;57.632;18.292;2022-07-18T14:27:25;21.80;99.90
37844;DHT22;23930;57.632;18.292;2022-07-18T14:29:52;21.70;99.90
37844;DHT22;23930;57.632;18.292;2022-07-18T14:32:19;21.60;99.90
37844;DHT22;23930;57.632;18.292;2022-07-18T14:34:46;21.50;99.90
37844;DHT22;23930;57.632;18.292;2022-07-18T14:37:13;21.30;99.90
37844;DHT22;23930;57.632;18.292;2022-07-18T14:39:40;21.20;99.90
37844;DHT22;23930;57.632;18.292;2022-07-18T14:42:07;21.20;99.90
37844;DHT22;23930;57.632;18.292;2022-07-18T14:44:34;21.10;99.90
37844;DHT22;23930;57.632;18.292;2022-07-18T14:47:01;21.10;99.90
37844;DHT22;23930;57.632;18.292;2022-07-18T14:49:28;21.00;99.90
37844;DHT22;23930;57.632;18.292;2022-07-18T14:51:55;20.90;99.90
37844;DHT22;23930;57.632;18.292;2022-07-18T14:54:23;20.80;99.90
37844;DHT22;23930;57.632;18.292;2022-07-18T14:56:50;20.80;99.90
37844;DHT22;23930;57.632;18.292;2022-07-18T14:59:19;20.80;99.90
37844;DHT22;23930;57.632;18.292;2022-07-18T15:01:46;20.70;99.90
37844;DHT22;23930;57.632;18.292;2022-07-18T15:04:14;20.70;99.90
37844;DHT22;23930;57.632;18.292;2022-07-18T15:06:45;20.60;99.90
37844;DHT22;23930;57.632;18.292;2022-07-18T15:09:13;20.60;99.90
37844;DHT22;23930;57.632;18.292;2022-07-18T15:11:41;20.50;99.90
37844;DHT22;23930;57.632;18.292;2022-07-18T15:14:09;20.60;99.90
37844;DHT22;23930;57.632;18.292;2022-07-18T15:16:36;20.60;99.90
37844;DHT22;23930;57.632;18.292;2022-07-18T15:19:04;20.50;99.90
37844;DHT22;23930;57.632;18.292;2022-07-18T15:21:31;20.50;99.90
37844;DHT22;23930;57.632;18.292;2022-07-18T15:23:59;20.50;99.90
37844;DHT22;23930;57.632;18.292;2022-07-18T15:26:26;20.50;99.90
37844;DHT22;23930;57.632;18.292;2022-07-18T15:28:53;20.60;99.90
37844;DHT22;23930;57.632;18.292;2022-07-18T15:31:20;20.70;99.90
37844;DHT22;23930;57.632;18.292;2022-07-18T15:33:47;20.80;99.90
37844;DHT22;23930;57.632;18.292;2022-07-18T15:36:14;20.90;99.90
37844;DHT22;23930;57.632;18.292;2022-07-18T15:38:41;20.90;99.90
37844;DHT22;23930;57.632;18.292;2022-07-18T15:41:09;21.00;99.90
37844;DHT22;23930;57.632;18.292;2022-07-18T15:43:37;21.00;99.90
37844;DHT22;23930;57.632;18.292;2022-07-18T15:46:05;21.10;99.90
37844;DHT22;23930;57.632;18.292;2022-07-18T15:48:32;21.20;99.90
37844;DHT22;23930;57.632;18.292;2022-07-18T15:50:59;21.20;99.90
37844;DHT22;23930;57.632;18.292;2022-07-18T15:53:26;21.40;99.90